sensor_id;sensor_type;location;lat;lon;timestamp;P1;durP1;ratioP1;P2;durP2;ratioP2
31808;SDS011;18379;48.208;-1.518;2023-10-19T00:03:49;53.37;;;47.60;;
31808;SDS011;18379;48.208;-1.518;2023-10-19T00:08:50;52.77;;;47.53;;
31808;SDS011;18379;48.208;-1.518;2023-10-19T00:13:52;54.10;;;48.33;;
31808;SDS011;18379;48.208;-1.518;2023-10-19T00:18:54;52.97;;;47.10;;
31808;SDS011;18379;48.208;-1.518;2023-10-19T00:23:59;53.67;;;47.93;;
31808;SDS011;18379;48.208;-1.518;2023-10-19T00:29:04;54.57;;;48.37;;
31808;SDS011;18379;48.208;-1.518;2023-10-19T00:34:15;54.30;;;47.97;;
31808;SDS011;18379;48.208;-1.518;2023-10-19T00:39:16;54.87;;;49.43;;
31808;SDS011;18379;48.208;-1.518;2023-10-19T00:44:24;56.07;;;48.70;;
31808;SDS011;18379;48.208;-1.518;2023-10-19T00:49:45;52.87;;;47.33;;
31808;SDS011;18379;48.208;-1.518;2023-10-19T00:54:47;53.23;;;47.70;;
31808;SDS011;18379;48.208;-1.518;2023-10-19T00:59:51;52.13;;;47.20;;
31808;SDS011;18379;48.208;-1.518;2023-10-19T01:04:56;56.13;;;47.93;;
31808;SDS011;18379;48.208;-1.518;2023-10-19T01:10:01;56.90;;;48.00;;
31808;SDS011;18379;48.208;-1.518;2023-10-19T01:20:08;52.30;;;47.17;;
31808;SDS011;18379;48.208;-1.518;2023-10-19T01:25:32;52.67;;;47.47;;
31808;SDS011;18379;48.208;-1.518;2023-10-19T01:30:38;53.17;;;48.00;;
31808;SDS011;18379;48.208;-1.518;2023-10-19T01:35:39;52.17;;;47.47;;
31808;SDS011;18379;48.208;-1.518;2023-10-19T01:40:59;52.57;;;46.97;;
31808;SDS011;18379;48.208;-1.518;2023-10-19T01:46:01;53.37;;;47.67;;
31808;SDS011;18379;48.208;-1.518;2023-10-19T01:51:05;51.97;;;47.23;;
31808;SDS011;18379;48.208;-1.518;2023-10-19T01:56:06;52.73;;;47.57;;
31808;SDS011;18379;48.208;-1.518;2023-10-19T02:01:09;52.07;;;47.20;;
31808;SDS011;18379;48.208;-1.518;2023-10-19T02:06:14;53.40;;;48.50;;
31808;SDS011;18379;48.208;-1.518;2023-10-19T02:11:15;52.87;;;47.87;;
31808;SDS011;18379;48.208;-1.518;2023-10-19T02:16:20;53.23;;;48.17;;
31808;SDS011;18379;48.208;-1.518;2023-10-19T02:21:23;53.93;;;48.70;;
31808;SDS011;18379;48.208;-1.518;2023-10-19T02:26:30;52.80;;;47.90;;
31808;SDS011;18379;48.208;-1.518;2023-10-19T02:31:31;51.90;;;47.10;;
31808;SDS011;18379;48.208;-1.518;2023-10-19T02:36:32;51.13;;;46.50;;
31808;SDS011;18379;48.208;-1.518;2023-10-19T02:41:37;50.80;;;46.53;;
31808;SDS011;18379;48.208;-1.518;2023-10-19T02:46:39;49.70;;;45.73;;
31808;SDS011;18379;48.208;-1.518;2023-10-19T02:51:42;49.97;;;45.80;;
31808;SDS011;18379;48.208;-1.518;2023-10-19T02:56:46;48.40;;;45.27;;
31808;SDS011;18379;48.208;-1.518;2023-10-19T03:01:50;48.17;;;45.00;;
31808;SDS011;18379;48.208;-1.518;2023-10-19T03:06:52;47.80;;;44.80;;
31808;SDS011;18379;48.208;-1.518;2023-10-19T03:11:53;47.73;;;44.73;;
31808;SDS011;18379;48.208;-1.518;2023-10-19T03:16:59;47.90;;;44.97;;
31808;SDS011;18379;48.208;-1.518;2023-10-19T03:22:00;47.67;;;44.67;;
31808;SDS011;18379;48.208;-1.518;2023-10-19T03:27:02;48.13;;;44.70;;
31808;SDS011;18379;48.208;-1.518;2023-10-19T03:32:24;49.20;;;45.53;;
31808;SDS011;18379;48.208;-1.518;2023-10-19T03:37:32;48.63;;;45.17;;
31808;SDS011;18379;48.208;-1.518;2023-10-19T03:42:35;48.33;;;45.10;;
31808;SDS011;18379;48.208;-1.518;2023-10-19T03:47:40;48.40;;;45.30;;
31808;SDS011;18379;48.208;-1.518;2023-10-19T03:52:44;50.03;;;45.63;;
31808;SDS011;18379;48.208;-1.518;2023-10-19T03:57:45;48.53;;;45.40;;
31808;SDS011;18379;48.208;-1.518;2023-10-19T04:02:55;49.50;;;46.03;;
31808;SDS011;18379;48.208;-1.518;2023-10-19T04:07:55;48.97;;;45.30;;
31808;SDS011;18379;48.208;-1.518;2023-10-19T04:12:57;49.00;;;45.33;;
31808;SDS011;18379;48.208;-1.518;2023-10-19T04:18:00;49.17;;;45.70;;
31808;SDS011;18379;48.208;-1.518;2023-10-19T04:23:08;49.37;;;46.07;;
31808;SDS011;18379;48.208;-1.518;2023-10-19T04:28:14;49.73;;;46.20;;
31808;SDS011;18379;48.208;-1.518;2023-10-19T04:33:15;49.70;;;46.40;;
31808;SDS011;18379;48.208;-1.518;2023-10-19T04:38:18;48.30;;;45.10;;
31808;SDS011;18379;48.208;-1.518;2023-10-19T04:43:20;48.13;;;45.13;;
31808;SDS011;18379;48.208;-1.518;2023-10-19T04:48:21;49.90;;;46.70;;
31808;SDS011;18379;48.208;-1.518;2023-10-19T04:53:22;48.07;;;45.00;;
31808;SDS011;18379;48.208;-1.518;2023-10-19T04:58:23;48.03;;;44.90;;
31808;SDS011;18379;48.208;-1.518;2023-10-19T05:03:24;49.30;;;46.30;;
31808;SDS011;18379;48.208;-1.518;2023-10-19T05:08:25;48.70;;;45.67;;
31808;SDS011;18379;48.208;-1.518;2023-10-19T05:13:27;49.47;;;46.07;;
31808;SDS011;18379;48.208;-1.518;2023-10-19T05:18:30;48.53;;;45.43;;
31808;SDS011;18379;48.208;-1.518;2023-10-19T05:23:31;48.73;;;45.83;;
31808;SDS011;18379;48.208;-1.518;2023-10-19T05:28:33;48.60;;;45.27;;
31808;SDS011;18379;48.208;-1.518;2023-10-19T05:33:33;48.57;;;45.53;;
31808;SDS011;18379;48.208;-1.518;2023-10-19T05:38:34;48.57;;;45.30;;
31808;SDS011;18379;48.208;-1.518;2023-10-19T05:43:35;48.20;;;44.90;;
31808;SDS011;18379;48.208;-1.518;2023-10-19T05:48:38;48.73;;;45.57;;
31808;SDS011;18379;48.208;-1.518;2023-10-19T05:53:39;48.87;;;45.63;;
31808;SDS011;18379;48.208;-1.518;2023-10-19T05:58:39;48.77;;;45.23;;
31808;SDS011;18379;48.208;-1.518;2023-10-19T06:03:41;49.37;;;46.03;;
31808;SDS011;18379;48.208;-1.518;2023-10-19T06:08:41;47.93;;;44.83;;
31808;SDS011;18379;48.208;-1.518;2023-10-19T06:13:42;49.07;;;45.93;;
31808;SDS011;18379;48.208;-1.518;2023-10-19T06:18:45;48.37;;;45.00;;
31808;SDS011;18379;48.208;-1.518;2023-10-19T06:23:46;48.83;;;45.17;;
31808;SDS011;18379;48.208;-1.518;2023-10-19T06:28:47;48.70;;;45.37;;
31808;SDS011;18379;48.208;-1.518;2023-10-19T06:33:48;49.53;;;46.20;;
31808;SDS011;18379;48.208;-1.518;2023-10-19T06:38:49;49.27;;;45.67;;
31808;SDS011;18379;48.208;-1.518;2023-10-19T06:43:51;48.67;;;45.27;;
31808;SDS011;18379;48.208;-1.518;2023-10-19T06:48:51;48.90;;;45.23;;
31808;SDS011;18379;48.208;-1.518;2023-10-19T06:53:56;49.30;;;45.60;;
31808;SDS011;18379;48.208;-1.518;2023-10-19T06:58:57;50.20;;;46.30;;
31808;SDS011;18379;48.208;-1.518;2023-10-19T07:03:58;49.87;;;46.03;;
31808;SDS011;18379;48.208;-1.518;2023-10-19T07:08:59;49.07;;;45.63;;
31808;SDS011;18379;48.208;-1.518;2023-10-19T07:13:59;50.17;;;46.30;;
31808;SDS011;18379;48.208;-1.518;2023-10-19T07:19:01;50.53;;;46.33;;
31808;SDS011;18379;48.208;-1.518;2023-10-19T07:24:01;51.00;;;46.67;;
31808;SDS011;18379;48.208;-1.518;2023-10-19T07:29:05;51.07;;;46.80;;
31808;SDS011;18379;48.208;-1.518;2023-10-19T07:34:10;50.93;;;46.43;;
31808;SDS011;18379;48.208;-1.518;2023-10-19T07:39:15;50.37;;;46.73;;
31808;SDS011;18379;48.208;-1.518;2023-10-19T07:44:19;51.87;;;47.33;;
31808;SDS011;18379;48.208;-1.518;2023-10-19T07:49:19;50.87;;;46.50;;
31808;SDS011;18379;48.208;-1.518;2023-10-19T07:54:22;50.70;;;46.67;;
31808;SDS011;18379;48.208;-1.518;2023-10-19T07:59:22;51.53;;;47.00;;
31808;SDS011;18379;48.208;-1.518;2023-10-19T08:04:23;50.33;;;46.43;;
31808;SDS011;18379;48.208;-1.518;2023-10-19T08:09:25;51.77;;;47.03;;
31808;SDS011;18379;48.208;-1.518;2023-10-19T08:14:31;52.27;;;47.60;;
31808;SDS011;18379;48.208;-1.518;2023-10-19T08:19:32;51.73;;;47.33;;
31808;SDS011;18379;48.208;-1.518;2023-10-19T08:24:33;52.23;;;47.97;;
31808;SDS011;18379;48.208;-1.518;2023-10-19T08:29:35;52.27;;;47.83;;
31808;SDS011;18379;48.208;-1.518;2023-10-19T08:34:36;53.33;;;48.10;;
31808;SDS011;18379;48.208;-1.518;2023-10-19T08:39:37;53.70;;;48.53;;
31808;SDS011;18379;48.208;-1.518;2023-10-19T08:44:37;53.43;;;48.77;;
31808;SDS011;18379;48.208;-1.518;2023-10-19T08:49:38;55.00;;;49.53;;
31808;SDS011;18379;48.208;-1.518;2023-10-19T08:54:39;53.77;;;48.97;;
31808;SDS011;18379;48.208;-1.518;2023-10-19T08:59:40;52.83;;;47.93;;
31808;SDS011;18379;48.208;-1.518;2023-10-19T09:04:41;52.10;;;47.70;;
31808;SDS011;18379;48.208;-1.518;2023-10-19T09:09:44;53.40;;;48.97;;
31808;SDS011;18379;48.208;-1.518;2023-10-19T09:14:47;52.37;;;48.07;;
31808;SDS011;18379;48.208;-1.518;2023-10-19T09:19:49;51.90;;;47.77;;
31808;SDS011;18379;48.208;-1.518;2023-10-19T09:24:51;52.77;;;48.47;;
31808;SDS011;18379;48.208;-1.518;2023-10-19T09:29:55;52.73;;;48.30;;
31808;SDS011;18379;48.208;-1.518;2023-10-19T09:34:56;52.67;;;48.27;;
31808;SDS011;18379;48.208;-1.518;2023-10-19T09:39:59;51.47;;;47.57;;
31808;SDS011;18379;48.208;-1.518;2023-10-19T09:45:01;52.70;;;48.60;;
31808;SDS011;18379;48.208;-1.518;2023-10-19T09:50:05;53.30;;;48.73;;
31808;SDS011;18379;48.208;-1.518;2023-10-19T09:55:11;51.73;;;48.13;;
31808;SDS011;18379;48.208;-1.518;2023-10-19T10:00:19;52.50;;;48.43;;
31808;SDS011;18379;48.208;-1.518;2023-10-19T10:10:42;52.40;;;48.43;;
31808;SDS011;18379;48.208;-1.518;2023-10-19T10:15:44;54.73;;;50.07;;
31808;SDS011;18379;48.208;-1.518;2023-10-19T10:20:55;54.80;;;50.13;;
31808;SDS011;18379;48.208;-1.518;2023-10-19T10:26:17;54.30;;;49.57;;
31808;SDS011;18379;48.208;-1.518;2023-10-19T10:31:19;55.23;;;49.90;;
31808;SDS011;18379;48.208;-1.518;2023-10-19T10:36:21;56.53;;;51.07;;
31808;SDS011;18379;48.208;-1.518;2023-10-19T10:41:23;56.33;;;51.03;;
31808;SDS011;18379;48.208;-1.518;2023-10-19T10:46:33;54.23;;;49.80;;
31808;SDS011;18379;48.208;-1.518;2023-10-19T10:51:34;55.70;;;50.37;;
31808;SDS011;18379;48.208;-1.518;2023-10-19T10:56:39;54.83;;;49.70;;
31808;SDS011;18379;48.208;-1.518;2023-10-19T11:01:41;55.23;;;50.60;;
31808;SDS011;18379;48.208;-1.518;2023-10-19T11:07:00;55.53;;;50.53;;
31808;SDS011;18379;48.208;-1.518;2023-10-19T11:12:09;54.30;;;49.20;;
31808;SDS011;18379;48.208;-1.518;2023-10-19T11:17:12;54.80;;;49.93;;
31808;SDS011;18379;48.208;-1.518;2023-10-19T11:22:15;51.90;;;47.90;;
31808;SDS011;18379;48.208;-1.518;2023-10-19T11:27:21;51.37;;;47.43;;
31808;SDS011;18379;48.208;-1.518;2023-10-19T11:32:35;51.23;;;47.37;;
31808;SDS011;18379;48.208;-1.518;2023-10-19T11:37:47;50.60;;;46.83;;
31808;SDS011;18379;48.208;-1.518;2023-10-19T11:42:49;51.63;;;47.63;;
31808;SDS011;18379;48.208;-1.518;2023-10-19T11:47:50;50.50;;;46.97;;
31808;SDS011;18379;48.208;-1.518;2023-10-19T11:52:52;51.57;;;47.53;;
31808;SDS011;18379;48.208;-1.518;2023-10-19T11:57:53;58.13;;;53.00;;
31808;SDS011;18379;48.208;-1.518;2023-10-19T12:02:54;52.17;;;47.87;;
31808;SDS011;18379;48.208;-1.518;2023-10-19T12:07:55;51.60;;;47.30;;
31808;SDS011;18379;48.208;-1.518;2023-10-19T12:12:56;52.50;;;48.67;;
31808;SDS011;18379;48.208;-1.518;2023-10-19T12:17:57;52.03;;;47.97;;
31808;SDS011;18379;48.208;-1.518;2023-10-19T12:22:59;53.30;;;48.73;;
31808;SDS011;18379;48.208;-1.518;2023-10-19T12:28:00;52.87;;;48.83;;
31808;SDS011;18379;48.208;-1.518;2023-10-19T12:33:04;53.70;;;49.40;;
31808;SDS011;18379;48.208;-1.518;2023-10-19T12:38:13;52.33;;;48.30;;
31808;SDS011;18379;48.208;-1.518;2023-10-19T12:43:17;53.00;;;48.93;;
31808;SDS011;18379;48.208;-1.518;2023-10-19T12:48:19;52.93;;;48.57;;
31808;SDS011;18379;48.208;-1.518;2023-10-19T12:53:25;52.37;;;48.33;;
31808;SDS011;18379;48.208;-1.518;2023-10-19T12:58:26;51.43;;;47.83;;
31808;SDS011;18379;48.208;-1.518;2023-10-19T13:03:27;51.77;;;47.83;;
31808;SDS011;18379;48.208;-1.518;2023-10-19T13:08:31;51.50;;;47.50;;
31808;SDS011;18379;48.208;-1.518;2023-10-19T13:13:32;52.20;;;48.23;;
31808;SDS011;18379;48.208;-1.518;2023-10-19T13:18:33;51.10;;;47.40;;
31808;SDS011;18379;48.208;-1.518;2023-10-19T13:23:34;51.53;;;47.90;;
31808;SDS011;18379;48.208;-1.518;2023-10-19T13:28:35;50.80;;;47.17;;
31808;SDS011;18379;48.208;-1.518;2023-10-19T13:33:38;50.60;;;47.10;;
31808;SDS011;18379;48.208;-1.518;2023-10-19T13:38:41;51.20;;;47.60;;
31808;SDS011;18379;48.208;-1.518;2023-10-19T13:43:42;51.63;;;47.83;;
31808;SDS011;18379;48.208;-1.518;2023-10-19T13:48:44;51.60;;;48.20;;
31808;SDS011;18379;48.208;-1.518;2023-10-19T13:53:46;51.40;;;47.73;;
31808;SDS011;18379;48.208;-1.518;2023-10-19T13:58:47;51.10;;;47.60;;
31808;SDS011;18379;48.208;-1.518;2023-10-19T14:03:48;51.57;;;48.10;;
31808;SDS011;18379;48.208;-1.518;2023-10-19T14:08:48;50.63;;;47.20;;
31808;SDS011;18379;48.208;-1.518;2023-10-19T14:13:49;51.50;;;47.60;;
31808;SDS011;18379;48.208;-1.518;2023-10-19T14:18:52;50.90;;;47.57;;
31808;SDS011;18379;48.208;-1.518;2023-10-19T14:23:53;51.10;;;47.57;;
31808;SDS011;18379;48.208;-1.518;2023-10-19T14:28:54;51.70;;;47.90;;
31808;SDS011;18379;48.208;-1.518;2023-10-19T14:33:55;51.20;;;47.60;;
31808;SDS011;18379;48.208;-1.518;2023-10-19T14:38:57;50.70;;;47.10;;
31808;SDS011;18379;48.208;-1.518;2023-10-19T14:43:57;50.90;;;47.40;;
31808;SDS011;18379;48.208;-1.518;2023-10-19T14:48:59;51.50;;;47.60;;
31808;SDS011;18379;48.208;-1.518;2023-10-19T14:54:00;51.20;;;47.70;;
31808;SDS011;18379;48.208;-1.518;2023-10-19T14:59:01;51.70;;;48.03;;
31808;SDS011;18379;48.208;-1.518;2023-10-19T15:04:01;51.70;;;48.00;;
31808;SDS011;18379;48.208;-1.518;2023-10-19T15:09:02;51.93;;;48.23;;
31808;SDS011;18379;48.208;-1.518;2023-10-19T15:14:03;52.63;;;48.63;;
31808;SDS011;18379;48.208;-1.518;2023-10-19T15:19:05;52.47;;;48.60;;
31808;SDS011;18379;48.208;-1.518;2023-10-19T15:24:05;52.20;;;48.50;;
31808;SDS011;18379;48.208;-1.518;2023-10-19T15:29:06;51.47;;;47.80;;
31808;SDS011;18379;48.208;-1.518;2023-10-19T15:34:07;51.90;;;48.30;;
31808;SDS011;18379;48.208;-1.518;2023-10-19T15:39:16;51.87;;;47.90;;
31808;SDS011;18379;48.208;-1.518;2023-10-19T15:44:18;51.37;;;47.73;;
31808;SDS011;18379;48.208;-1.518;2023-10-19T15:49:20;51.80;;;48.07;;
31808;SDS011;18379;48.208;-1.518;2023-10-19T15:54:21;51.63;;;48.00;;
31808;SDS011;18379;48.208;-1.518;2023-10-19T15:59:21;51.10;;;47.37;;
31808;SDS011;18379;48.208;-1.518;2023-10-19T16:04:22;51.80;;;48.47;;
31808;SDS011;18379;48.208;-1.518;2023-10-19T16:09:23;51.57;;;48.10;;
31808;SDS011;18379;48.208;-1.518;2023-10-19T16:14:23;51.30;;;47.87;;
31808;SDS011;18379;48.208;-1.518;2023-10-19T16:19:24;50.97;;;47.67;;
31808;SDS011;18379;48.208;-1.518;2023-10-19T16:24:25;52.97;;;49.20;;
31808;SDS011;18379;48.208;-1.518;2023-10-19T16:29:26;50.70;;;47.40;;
31808;SDS011;18379;48.208;-1.518;2023-10-19T16:34:27;53.90;;;49.60;;
31808;SDS011;18379;48.208;-1.518;2023-10-19T16:39:28;51.87;;;48.10;;
31808;SDS011;18379;48.208;-1.518;2023-10-19T16:44:29;51.33;;;47.63;;
31808;SDS011;18379;48.208;-1.518;2023-10-19T16:49:30;52.73;;;49.20;;
31808;SDS011;18379;48.208;-1.518;2023-10-19T16:54:34;51.17;;;47.47;;
31808;SDS011;18379;48.208;-1.518;2023-10-19T16:59:35;51.93;;;48.20;;
31808;SDS011;18379;48.208;-1.518;2023-10-19T17:04:36;50.83;;;47.23;;
31808;SDS011;18379;48.208;-1.518;2023-10-19T17:09:37;51.27;;;47.73;;
31808;SDS011;18379;48.208;-1.518;2023-10-19T17:14:37;53.13;;;49.30;;
31808;SDS011;18379;48.208;-1.518;2023-10-19T17:19:39;53.90;;;49.97;;
31808;SDS011;18379;48.208;-1.518;2023-10-19T17:24:40;55.40;;;51.00;;
31808;SDS011;18379;48.208;-1.518;2023-10-19T17:29:41;52.03;;;48.33;;
31808;SDS011;18379;48.208;-1.518;2023-10-19T17:34:42;51.37;;;47.87;;
31808;SDS011;18379;48.208;-1.518;2023-10-19T17:39:43;51.17;;;47.77;;
31808;SDS011;18379;48.208;-1.518;2023-10-19T17:44:43;52.30;;;48.33;;
31808;SDS011;18379;48.208;-1.518;2023-10-19T17:49:44;50.80;;;47.30;;
31808;SDS011;18379;48.208;-1.518;2023-10-19T17:54:45;51.43;;;48.03;;
31808;SDS011;18379;48.208;-1.518;2023-10-19T17:59:45;52.43;;;48.90;;
31808;SDS011;18379;48.208;-1.518;2023-10-19T18:04:46;51.53;;;47.83;;
31808;SDS011;18379;48.208;-1.518;2023-10-19T18:09:50;51.60;;;47.93;;
31808;SDS011;18379;48.208;-1.518;2023-10-19T18:14:50;52.47;;;48.93;;
31808;SDS011;18379;48.208;-1.518;2023-10-19T18:19:51;52.93;;;49.30;;
31808;SDS011;18379;48.208;-1.518;2023-10-19T18:24:52;51.30;;;47.73;;
31808;SDS011;18379;48.208;-1.518;2023-10-19T18:29:52;53.43;;;49.03;;
31808;SDS011;18379;48.208;-1.518;2023-10-19T18:34:53;50.67;;;47.37;;
31808;SDS011;18379;48.208;-1.518;2023-10-19T18:39:54;50.43;;;47.10;;
31808;SDS011;18379;48.208;-1.518;2023-10-19T18:44:55;50.97;;;47.57;;
31808;SDS011;18379;48.208;-1.518;2023-10-19T18:49:59;55.63;;;51.07;;
31808;SDS011;18379;48.208;-1.518;2023-10-19T18:55:03;53.13;;;49.23;;
31808;SDS011;18379;48.208;-1.518;2023-10-19T19:00:04;56.37;;;52.47;;
31808;SDS011;18379;48.208;-1.518;2023-10-19T19:05:06;54.93;;;51.03;;
31808;SDS011;18379;48.208;-1.518;2023-10-19T19:10:07;51.37;;;47.80;;
31808;SDS011;18379;48.208;-1.518;2023-10-19T19:15:11;50.27;;;46.93;;
31808;SDS011;18379;48.208;-1.518;2023-10-19T19:20:12;51.00;;;47.60;;
31808;SDS011;18379;48.208;-1.518;2023-10-19T19:25:13;51.53;;;47.80;;
31808;SDS011;18379;48.208;-1.518;2023-10-19T19:30:14;53.73;;;49.77;;
31808;SDS011;18379;48.208;-1.518;2023-10-19T19:35:15;55.93;;;51.83;;
31808;SDS011;18379;48.208;-1.518;2023-10-19T19:40:16;50.50;;;47.17;;
31808;SDS011;18379;48.208;-1.518;2023-10-19T19:45:18;51.10;;;47.70;;
31808;SDS011;18379;48.208;-1.518;2023-10-19T19:50:20;52.00;;;48.43;;
31808;SDS011;18379;48.208;-1.518;2023-10-19T19:55:21;52.60;;;48.57;;
31808;SDS011;18379;48.208;-1.518;2023-10-19T20:00:21;51.03;;;47.23;;
31808;SDS011;18379;48.208;-1.518;2023-10-19T20:05:24;51.57;;;47.60;;
31808;SDS011;18379;48.208;-1.518;2023-10-19T20:15:44;52.80;;;48.83;;
31808;SDS011;18379;48.208;-1.518;2023-10-19T20:20:44;51.80;;;48.10;;
31808;SDS011;18379;48.208;-1.518;2023-10-19T20:25:45;51.73;;;48.10;;
31808;SDS011;18379;48.208;-1.518;2023-10-19T20:30:47;51.17;;;47.67;;
31808;SDS011;18379;48.208;-1.518;2023-10-19T20:35:48;50.27;;;47.13;;
31808;SDS011;18379;48.208;-1.518;2023-10-19T20:40:52;51.60;;;48.20;;
31808;SDS011;18379;48.208;-1.518;2023-10-19T20:45:53;51.30;;;47.87;;
31808;SDS011;18379;48.208;-1.518;2023-10-19T20:50:54;50.73;;;46.97;;
31808;SDS011;18379;48.208;-1.518;2023-10-19T20:56:00;50.97;;;47.10;;
31808;SDS011;18379;48.208;-1.518;2023-10-19T21:01:05;49.97;;;46.70;;
31808;SDS011;18379;48.208;-1.518;2023-10-19T21:06:14;50.37;;;46.87;;
31808;SDS011;18379;48.208;-1.518;2023-10-19T21:11:16;50.67;;;47.00;;
31808;SDS011;18379;48.208;-1.518;2023-10-19T21:16:18;49.97;;;46.57;;
31808;SDS011;18379;48.208;-1.518;2023-10-19T21:21:18;49.67;;;46.33;;
31808;SDS011;18379;48.208;-1.518;2023-10-19T21:26:20;49.67;;;46.13;;
31808;SDS011;18379;48.208;-1.518;2023-10-19T21:31:21;51.40;;;47.80;;
31808;SDS011;18379;48.208;-1.518;2023-10-19T21:36:21;49.80;;;46.57;;
31808;SDS011;18379;48.208;-1.518;2023-10-19T21:41:22;49.40;;;46.17;;
31808;SDS011;18379;48.208;-1.518;2023-10-19T21:46:26;50.33;;;46.97;;
31808;SDS011;18379;48.208;-1.518;2023-10-19T21:51:27;51.27;;;47.87;;
31808;SDS011;18379;48.208;-1.518;2023-10-19T21:56:27;50.33;;;47.03;;
31808;SDS011;18379;48.208;-1.518;2023-10-19T22:01:28;50.97;;;47.60;;
31808;SDS011;18379;48.208;-1.518;2023-10-19T22:06:29;49.60;;;46.37;;
31808;SDS011;18379;48.208;-1.518;2023-10-19T22:11:30;50.23;;;46.93;;
31808;SDS011;18379;48.208;-1.518;2023-10-19T22:16:34;51.17;;;47.63;;
31808;SDS011;18379;48.208;-1.518;2023-10-19T22:21:34;50.33;;;47.03;;
31808;SDS011;18379;48.208;-1.518;2023-10-19T22:26:38;49.33;;;46.20;;
31808;SDS011;18379;48.208;-1.518;2023-10-19T22:31:39;49.97;;;46.67;;
31808;SDS011;18379;48.208;-1.518;2023-10-19T22:36:41;49.87;;;46.77;;
31808;SDS011;18379;48.208;-1.518;2023-10-19T22:41:41;50.63;;;47.27;;
31808;SDS011;18379;48.208;-1.518;2023-10-19T22:46:45;49.67;;;46.40;;
31808;SDS011;18379;48.208;-1.518;2023-10-19T22:51:46;51.03;;;47.63;;
31808;SDS011;18379;48.208;-1.518;2023-10-19T22:56:46;52.03;;;47.77;;
31808;SDS011;18379;48.208;-1.518;2023-10-19T23:01:47;51.43;;;47.83;;
31808;SDS011;18379;48.208;-1.518;2023-10-19T23:06:48;51.57;;;47.73;;
31808;SDS011;18379;48.208;-1.518;2023-10-19T23:11:51;51.40;;;47.73;;
31808;SDS011;18379;48.208;-1.518;2023-10-19T23:17:12;51.20;;;47.50;;
31808;SDS011;18379;48.208;-1.518;2023-10-19T23:22:16;50.07;;;46.97;;
31808;SDS011;18379;48.208;-1.518;2023-10-19T23:27:17;50.00;;;46.67;;
31808;SDS011;18379;48.208;-1.518;2023-10-19T23:32:18;51.60;;;48.03;;
31808;SDS011;18379;48.208;-1.518;2023-10-19T23:37:20;51.67;;;47.90;;
31808;SDS011;18379;48.208;-1.518;2023-10-19T23:42:21;52.27;;;48.40;;
31808;SDS011;18379;48.208;-1.518;2023-10-19T23:47:22;51.57;;;48.00;;
31808;SDS011;18379;48.208;-1.518;2023-10-19T23:52:22;52.30;;;48.70;;
31808;SDS011;18379;48.208;-1.518;2023-10-19T23:57:23;52.43;;;48.73;;
